Time;durP1;ratioP1;P1;durP2;ratioP2;P2;SDS_P1;SDS_P2;PMS_P1;PMS_P2;Temp;Humidity;BMP_temperature;BMP_pressure;BME280_temperature;BME280_humidity;BME280_pressure;Samples;Min_cycle;Max_cycle;Signal;HPM_P1;HPM_P2
2023/10/02 00:01:19;;;;;;;29;12.9;;;;;;;;;;;;;
2023/10/02 00:03:48;;;;;;;32;13;;;;;;;;;;;;;
2023/10/02 00:06:09;;;;;;;32.5;13.4;;;;;;;;;;;;;
2023/10/02 00:08:39;;;;;;;31.3;13.4;;;;;;;;;;;;;
2023/10/02 00:11:05;;;;;;;32.2;13.5;;;;;;;;;;;;;
2023/10/02 00:13:25;;;;;;;31.3;13;;;;;;;;;;;;;
2023/10/02 00:15:53;;;;;;;30.9;13.4;;;;;;;;;;;;;
2023/10/02 00:18:18;;;;;;;31.5;13;;;;;;;;;;;;;
2023/10/02 00:20:40;;;;;;;33.3;13.9;;;;;;;;;;;;;
2023/10/02 00:23:05;;;;;;;28;12.8;;;;;;;;;;;;;
2023/10/02 00:25:51;;;;;;;34.7;13.9;;;;;;;;;;;;;
2023/10/02 00:27:55;;;;;;;30.7;13;;;;;;;;;;;;;
2023/10/02 00:30:21;;;;;;;27.1;11.6;;;;;;;;;;;;;
2023/10/02 00:32:47;;;;;;;26.4;11.1;;;;;;;;;;;;;
2023/10/02 00:35:12;;;;;;;26.2;11.4;;;;;;;;;;;;;
2023/10/02 00:37:47;;;;;;;25.2;11.8;;;;;;;;;;;;;
2023/10/02 00:40:06;;;;;;;30.1;12.3;;;;;;;;;;;;;
2023/10/02 00:42:28;;;;;;;32.8;13.1;;;;;;;;;;;;;
2023/10/02 00:44:54;;;;;;;31.4;14;;;;;;;;;;;;;
2023/10/02 00:47:35;;;;;;;32.3;13.3;;;;;;;;;;;;;
2023/10/02 00:49:44;;;;;;;30.4;13.6;;;;;;;;;;;;;
2023/10/02 00:52:10;;;;;;;29.1;13.1;;;;;;;;;;;;;
2023/10/02 00:54:35;;;;;;;32.2;13.9;;;;;;;;;;;;;
2023/10/02 00:57:11;;;;;;;31.6;13.8;;;;;;;;;;;;;
2023/10/02 00:59:28;;;;;;;34.4;13;;;;;;;;;;;;;
2023/10/02 01:01:54;;;;;;;30.7;13.5;;;;;;;;;;;;;
2023/10/02 01:04:28;;;;;;;31.3;13.5;;;;;;;;;;;;;
2023/10/02 01:07:04;;;;;;;29.1;13.1;;;;;;;;;;;;;
2023/10/02 01:09:14;;;;;;;30.1;13.7;;;;;;;;;;;;;
2023/10/02 01:11:34;;;;;;;32.2;14.3;;;;;;;;;;;;;
2023/10/02 01:14:03;;;;;;;34.1;14.5;;;;;;;;;;;;;
2023/10/02 01:16:27;;;;;;;34.9;14.5;;;;;;;;;;;;;
2023/10/02 01:18:52;;;;;;;32.5;13.7;;;;;;;;;;;;;
2023/10/02 01:21:18;;;;;;;33.3;14.6;;;;;;;;;;;;;
2023/10/02 01:24:00;;;;;;;33.1;14.2;;;;;;;;;;;;;
2023/10/02 01:26:10;;;;;;;35.9;15;;;;;;;;;;;;;
2023/10/02 01:28:49;;;;;;;36.7;14.7;;;;;;;;;;;;;
2023/10/02 01:31:31;;;;;;;35.2;15.1;;;;;;;;;;;;;
2023/10/02 01:33:32;;;;;;;33.8;14.4;;;;;;;;;;;;;
2023/10/02 01:35:52;;;;;;;31.9;13.7;;;;;;;;;;;;;
2023/10/02 01:38:18;;;;;;;28.6;13.2;;;;;;;;;;;;;
2023/10/02 01:40:42;;;;;;;32.6;13.8;;;;;;;;;;;;;
2023/10/02 01:43:14;;;;;;;36.1;15.1;;;;;;;;;;;;;
2023/10/02 01:45:34;;;;;;;35.7;14.3;;;;;;;;;;;;;
2023/10/02 01:47:58;;;;;;;37.4;17.5;;;;;;;;;;;;;
2023/10/02 01:50:24;;;;;;;30.7;14.2;;;;;;;;;;;;;
2023/10/02 01:52:49;;;;;;;31.1;13.7;;;;;;;;;;;;;
2023/10/02 01:55:14;;;;;;;30.1;12.7;;;;;;;;;;;;;
2023/10/02 01:57:41;;;;;;;32.5;13.6;;;;;;;;;;;;;
2023/10/02 02:00:13;;;;;;;30.6;13.4;;;;;;;;;;;;;
2023/10/02 02:02:34;;;;;;;31.8;13.7;;;;;;;;;;;;;
2023/10/02 02:04:56;;;;;;;35.6;14.5;;;;;;;;;;;;;
2023/10/02 02:07:22;;;;;;;34.2;14.4;;;;;;;;;;;;;
2023/10/02 02:09:48;;;;;;;36.1;14.8;;;;;;;;;;;;;
2023/10/02 02:12:14;;;;;;;37.9;16.6;;;;;;;;;;;;;
2023/10/02 02:14:41;;;;;;;39.5;15.5;;;;;;;;;;;;;
2023/10/02 02:17:04;;;;;;;35.2;15.2;;;;;;;;;;;;;
2023/10/02 02:19:30;;;;;;;37;14.8;;;;;;;;;;;;;
2023/10/02 02:21:56;;;;;;;35.3;14.5;;;;;;;;;;;;;
2023/10/02 02:24:22;;;;;;;34.9;13.7;;;;;;;;;;;;;
2023/10/02 02:26:46;;;;;;;35;14.2;;;;;;;;;;;;;
2023/10/02 02:29:23;;;;;;;30.8;13.7;;;;;;;;;;;;;
2023/10/02 02:31:39;;;;;;;31.3;14.4;;;;;;;;;;;;;
2023/10/02 02:34:01;;;;;;;33.6;13.8;;;;;;;;;;;;;
2023/10/02 02:36:28;;;;;;;37.4;15.5;;;;;;;;;;;;;
2023/10/02 02:39:05;;;;;;;30.7;12.4;;;;;;;;;;;;;
2023/10/02 02:41:18;;;;;;;29.5;13.3;;;;;;;;;;;;;
2023/10/02 02:43:46;;;;;;;30;12.8;;;;;;;;;;;;;
2023/10/02 02:46:17;;;;;;;33.9;13.8;;;;;;;;;;;;;
2023/10/02 02:48:43;;;;;;;36;14.6;;;;;;;;;;;;;
2023/10/02 02:51:14;;;;;;;37.2;15.6;;;;;;;;;;;;;
2023/10/02 02:53:27;;;;;;;37.6;16.2;;;;;;;;;;;;;
2023/10/02 02:55:49;;;;;;;41.1;17.8;;;;;;;;;;;;;
2023/10/02 02:58:14;;;;;;;37.7;15.6;;;;;;;;;;;;;
2023/10/02 03:00:39;;;;;;;42.3;15.9;;;;;;;;;;;;;
2023/10/02 03:03:29;;;;;;;37.7;16;;;;;;;;;;;;;
2023/10/02 03:05:41;;;;;;;38.9;15.7;;;;;;;;;;;;;
2023/10/02 03:08:02;;;;;;;41.2;15.7;;;;;;;;;;;;;
2023/10/02 03:10:23;;;;;;;38.7;15.3;;;;;;;;;;;;;
2023/10/02 03:12:48;;;;;;;39;15.8;;;;;;;;;;;;;
2023/10/02 03:15:14;;;;;;;39.5;15.2;;;;;;;;;;;;;
2023/10/02 03:17:41;;;;;;;40.4;16.5;;;;;;;;;;;;;
2023/10/02 03:20:21;;;;;;;42.4;16;;;;;;;;;;;;;
2023/10/02 03:22:33;;;;;;;39.9;15.7;;;;;;;;;;;;;
2023/10/02 03:24:54;;;;;;;37.8;15.4;;;;;;;;;;;;;
2023/10/02 03:27:21;;;;;;;37.6;15.9;;;;;;;;;;;;;
2023/10/02 03:29:45;;;;;;;39.2;15.3;;;;;;;;;;;;;
2023/10/02 03:32:11;;;;;;;38.4;15.6;;;;;;;;;;;;;
2023/10/02 03:34:36;;;;;;;38.5;15.1;;;;;;;;;;;;;
2023/10/02 03:37:09;;;;;;;37.1;15.3;;;;;;;;;;;;;
2023/10/02 03:39:59;;;;;;;36.8;15.7;;;;;;;;;;;;;
2023/10/02 03:41:55;;;;;;;38.6;16.4;;;;;;;;;;;;;
2023/10/02 03:44:19;;;;;;;35.2;14.8;;;;;;;;;;;;;
2023/10/02 03:46:45;;;;;;;32.2;13.4;;;;;;;;;;;;;
2023/10/02 03:49:11;;;;;;;39.1;15.5;;;;;;;;;;;;;
2023/10/02 03:51:41;;;;;;;34.5;14.9;;;;;;;;;;;;;
2023/10/02 03:54:17;;;;;;;39.1;15.9;;;;;;;;;;;;;
2023/10/02 03:56:42;;;;;;;44.1;18;;;;;;;;;;;;;
2023/10/02 03:58:52;;;;;;;38.5;15.7;;;;;;;;;;;;;
2023/10/02 04:02:36;;;;;;;44.4;17.1;;;;;;;11.37;91.91797;945.3735;;;;
2023/10/02 04:04:56;;;;;;;37.7;16;;;;;;;11.34;92.28809;945.3585;;;;
2023/10/02 04:07:30;;;;;;;33.9;15.6;;;;;;;11.31;92.62598;945.3222;;;;
2023/10/02 04:09:55;;;;;;;38.2;15.4;;;;;;;11.36;92.4541;945.3677;;;;
2023/10/02 04:12:22;;;;;;;34;14.8;;;;;;;11.07;94.04785;945.3995;;;;
2023/10/02 04:14:46;;;;;;;33.2;14.3;;;;;;;11.07;94.11816;945.4252;;;;
2023/10/02 04:17:12;;;;;;;37.5;15.2;;;;;;;11.08;94.22363;945.4277;;;;
2023/10/02 04:19:40;;;;;;;36.7;15.1;;;;;;;11.17;93.85254;945.3273;;;;
2023/10/02 04:22:06;;;;;;;34.5;13.4;;;;;;;11.27;93.31543;945.3915;;;;
2023/10/02 04:24:27;;;;;;;38.8;15.4;;;;;;;11.27;93.17773;945.3565;;;;
2023/10/02 04:27:08;;;;;;;38.5;15.5;;;;;;;11.32;92.78711;945.3716;;;;
2023/10/02 04:29:28;;;;;;;44.9;17.8;;;;;;;11.22;92.90332;945.4217;;;;
2023/10/02 04:32:04;;;;;;;38.2;15;;;;;;;11.5;91.81934;945.4487;;;;
2023/10/02 04:34:24;;;;;;;41.7;15.9;;;;;;;11.7;90.52148;945.335;;;;
2023/10/02 04:36:40;;;;;;;39;15.8;;;;;;;11.69;89.75293;945.4106;;;;
2023/10/02 04:39:04;;;;;;;39.1;15.5;;;;;;;11.61;89.9541;945.366;;;;
2023/10/02 04:41:37;;;;;;;41.8;17.1;;;;;;;11.68;89.85449;945.4623;;;;
2023/10/02 04:43:57;;;;;;;47;17.1;;;;;;;11.72;89.15332;945.3897;;;;
2023/10/02 04:46:16;;;;;;;44.6;17.3;;;;;;;11.63;88.93848;945.4328;;;;
2023/10/02 04:48:45;;;;;;;44;17.7;;;;;;;11.39;89.56348;945.4352;;;;
2023/10/02 04:51:09;;;;;;;42.4;17.2;;;;;;;11.32;90.24805;945.4673;;;;
2023/10/02 04:53:35;;;;;;;38.6;16;;;;;;;11.27;90.77637;945.4188;;;;
2023/10/02 04:56:21;;;;;;;46;17.9;;;;;;;11.19;91.2373;945.4814;;;;
2023/10/02 04:58:27;;;;;;;44.4;17.4;;;;;;;11.15;91.5957;945.4583;;;;
2023/10/02 05:03:25;;;;;;;43.6;16.5;;;;;;;11;92.30859;945.4363;;;;
2023/10/02 05:05:42;;;;;;;40.7;16.1;;;;;;;11.07;92.09277;945.4816;;;;
2023/10/02 05:08:18;;;;;;;43.2;15.9;;;;;;;11.07;91.87793;945.5081;;;;
2023/10/02 05:10:41;;;;;;;39.9;16.6;;;;;;;11.12;91.31543;945.4659;;;;
2023/10/02 05:13:09;;;;;;;41.7;15.9;;;;;;;11.14;91.45898;945.5236;;;;
2023/10/02 05:15:34;;;;;;;40.2;15.9;;;;;;;11.3;91.04492;945.5173;;;;
2023/10/02 05:18:08;;;;;;;45.3;18.2;;;;;;;11.39;90.10547;945.511;;;;
2023/10/02 05:20:28;;;;;;;48;18.9;;;;;;;11.43;89.61914;945.5455;;;;
2023/10/02 05:22:58;;;;;;;49.2;18.9;;;;;;;11.11;91.1084;945.5772;;;;
2023/10/02 05:25:20;;;;;;;48.2;18.8;;;;;;;11.01;92.10449;945.579;;;;
2023/10/02 05:27:47;;;;;;;51.1;20.3;;;;;;;10.99;92.69531;945.5508;;;;
2023/10/02 05:30:17;;;;;;;43.2;18.4;;;;;;;11;93.03809;945.5126;;;;
2023/10/02 05:32:38;;;;;;;44.4;16.4;;;;;;;11.04;92.94434;945.5902;;;;
2023/10/02 05:35:16;;;;;;;40.4;15.3;;;;;;;11.22;92.05762;945.5406;;;;
2023/10/02 05:37:31;;;;;;;42.2;16.1;;;;;;;11.18;91.78613;945.546;;;;
2023/10/02 05:39:52;;;;;;;41.8;15.8;;;;;;;10.94;93.11816;945.5864;;;;
2023/10/02 05:43:21;;;;;;;54.4;25;;;;;;;11.14;93.16211;945.5994;;;;
2023/10/02 05:45:48;;;;;;;36.5;15.3;;;;;;;11.22;93.0752;945.5876;;;;
2023/10/02 05:48:14;;;;;;;34.3;13.5;;;;;;;11.27;92.70898;945.6061;;;;
2023/10/02 05:50:34;;;;;;;34.3;13.7;;;;;;;11.39;92.31152;945.6537;;;;
2023/10/02 05:52:59;;;;;;;35.1;14.3;;;;;;;11.46;91.72949;945.6472;;;;
2023/10/02 05:55:25;;;;;;;34.5;13.4;;;;;;;11.58;91.35547;945.6191;;;;
2023/10/02 05:57:50;;;;;;;36.7;14;;;;;;;11.66;90.89258;945.7117;;;;
2023/10/02 06:00:20;;;;;;;34.3;14;;;;;;;11.9;90.07129;945.6277;;;;
2023/10/02 06:02:57;;;;;;;35.7;14.9;;;;;;;11.98;89.35645;945.7128;;;;
2023/10/02 06:05:11;;;;;;;41.9;16.4;;;;;;;11.87;88.9541;945.7341;;;;
2023/10/02 06:07:46;;;;;;;45.2;16.8;;;;;;;12;88.82129;945.6716;;;;
2023/10/02 06:10:07;;;;;;;41.8;15.9;;;;;;;12.24;87.73535;945.7039;;;;
2023/10/02 06:12:30;;;;;;;37.5;15.2;;;;;;;12.36;87.25391;945.632;;;;
2023/10/02 06:15:04;;;;;;;39.2;15.9;;;;;;;12.65;86.03906;945.695;;;;
2023/10/02 06:17:32;;;;;;;36;13.6;;;;;;;13.03;82.53125;945.7042;;;;
2023/10/02 06:19:49;;;;;;;40.9;15.6;;;;;;;13.27;82.2666;945.6613;;;;
2023/10/02 06:22:15;;;;;;;34.9;14.8;;;;;;;13.43;82.04492;945.7128;;;;
2023/10/02 06:24:42;;;;;;;42.3;17;;;;;;;13.3;82.49219;945.7416;;;;
2023/10/02 06:27:12;;;;;;;44.7;16.9;;;;;;;13.19;83.10156;945.6785;;;;
2023/10/02 06:29:34;;;;;;;40.2;16;;;;;;;13.01;84.2041;945.723;;;;
2023/10/02 06:32:03;;;;;;;38.6;16.3;;;;;;;12.84;85.44629;945.7338;;;;
2023/10/02 06:34:25;;;;;;;38.4;15.7;;;;;;;13.09;84.70215;945.7067;;;;
2023/10/02 06:36:48;;;;;;;41.2;17;;;;;;;13.14;84.20508;945.7575;;;;
2023/10/02 06:39:21;;;;;;;40;15.9;;;;;;;13.36;83.3418;945.7583;;;;
2023/10/02 06:41:48;;;;;;;37.3;15.6;;;;;;;13.66;83.29492;945.7419;;;;
2023/10/02 06:44:21;;;;;;;36.7;15.4;;;;;;;13.77;82.39746;945.7101;;;;
2023/10/02 06:46:52;;;;;;;36.3;14.7;;;;;;;13.85;81.74316;945.7639;;;;
2023/10/02 06:49:15;;;;;;;36.1;15.5;;;;;;;14.07;81.03711;945.8141;;;;
2023/10/02 06:51:32;;;;;;;33.9;14.1;;;;;;;14.13;81.02637;945.7809;;;;
2023/10/02 06:54:07;;;;;;;39.1;15.9;;;;;;;14.3;80.6416;945.7561;;;;
2023/10/02 06:56:24;;;;;;;37.9;15.2;;;;;;;14.29;79.75293;945.8049;;;;
2023/10/02 06:58:53;;;;;;;32.9;13.5;;;;;;;14.69;78.63867;945.8308;;;;
2023/10/02 07:01:18;;;;;;;35.8;14.7;;;;;;;14.96;78.66406;945.8133;;;;
2023/10/02 07:03:40;;;;;;;34.7;13.9;;;;;;;15.15;78.27148;945.7911;;;;
2023/10/02 07:06:08;;;;;;;35;14.8;;;;;;;15.09;77.37305;945.7676;;;;
2023/10/02 07:08:34;;;;;;;34.3;14.4;;;;;;;15.16;78.80371;945.7614;;;;
2023/10/02 07:11:01;;;;;;;36.3;14.4;;;;;;;15.36;77.84863;945.7946;;;;
2023/10/02 07:13:25;;;;;;;36.5;13.8;;;;;;;15.49;75.87305;945.7358;;;;
2023/10/02 07:15:55;;;;;;;34.9;13.7;;;;;;;15.8;76.35449;945.7402;;;;
2023/10/02 07:18:20;;;;;;;29.3;12.5;;;;;;;16.02;74.61328;945.7314;;;;
2023/10/02 07:20:52;;;;;;;57.9;25.5;;;;;;;16.21;74.7373;945.6719;;;;
2023/10/02 07:23:19;;;;;;;37.8;16.6;;;;;;;16.44;71.79004;945.7012;;;;
2023/10/02 07:25:37;;;;;;;35;14;;;;;;;16.71;71.44043;945.666;;;;
2023/10/02 07:28:03;;;;;;;35.1;13.6;;;;;;;16.88;72.27832;945.7471;;;;
2023/10/02 07:30:28;;;;;;;35.8;14.2;;;;;;;17.07;69.59863;945.6905;;;;
2023/10/02 07:33:02;;;;;;;36.9;14.6;;;;;;;17.07;67.37402;945.5536;;;;
2023/10/02 07:35:22;;;;;;;36;15.1;;;;;;;17.21;65.5166;945.6521;;;;
2023/10/02 07:37:57;;;;;;;38.6;15.5;;;;;;;17.45;64.48535;945.6459;;;;
2023/10/02 07:40:13;;;;;;;43.3;17.5;;;;;;;17.88;63.91016;945.6394;;;;
2023/10/02 07:42:40;;;;;;;40.7;17.2;;;;;;;18.25;62.03516;945.6259;;;;
2023/10/02 07:45:24;;;;;;;45;18.2;;;;;;;18.4;60.4873;945.6052;;;;
2023/10/02 07:47:32;;;;;;;45.5;19.2;;;;;;;18.64;56.04102;945.6063;;;;
2023/10/02 07:49:59;;;;;;;50.6;19.7;;;;;;;18.64;55.87695;945.5999;;;;
2023/10/02 07:52:35;;;;;;;47;18.6;;;;;;;19.06;55.72168;945.5524;;;;
2023/10/02 07:54:49;;;;;;;47.5;18.7;;;;;;;19.2;55.39063;945.5289;;;;
2023/10/02 07:57:13;;;;;;;45.4;19.5;;;;;;;19.53;54.82617;945.5632;;;;
2023/10/02 07:59:40;;;;;;;46.4;18.6;;;;;;;19.71;56.5498;945.5388;;;;
2023/10/02 08:02:21;;;;;;;47.9;18.6;;;;;;;19.87;56.11621;945.5844;;;;
2023/10/02 08:04:45;;;;;;;44.4;18.6;;;;;;;20.16;53.92285;945.5051;;;;
2023/10/02 08:06:56;;;;;;;45.8;19;;;;;;;20.16;52.69727;945.5123;;;;
2023/10/02 08:09:35;;;;;;;45.7;18.5;;;;;;;20.07;51.81152;945.5341;;;;
2023/10/02 08:11:50;;;;;;;43.8;18.7;;;;;;;20.39;53.34473;945.5275;;;;
2023/10/02 08:14:34;;;;;;;44.3;18.6;;;;;;;20.7;50.7168;945.4744;;;;
2023/10/02 08:17:00;;;;;;;43.7;16.9;;;;;;;21.26;51.6123;945.4504;;;;
2023/10/02 08:19:10;;;;;;;33.4;14.5;;;;;;;21.33;53.12988;945.4197;;;;
2023/10/02 08:21:36;;;;;;;31.9;12.7;;;;;;;21.67;53.09961;945.418;;;;
2023/10/02 08:23:59;;;;;;;36.6;15.1;;;;;;;21.59;50.83008;945.413;;;;
2023/10/02 08:26:23;;;;;;;35.8;14.8;;;;;;;21.92;50.75098;945.462;;;;
2023/10/02 08:28:52;;;;;;;32.8;14.7;;;;;;;22.21;50.20996;945.365;;;;
2023/10/02 08:31:13;;;;;;;35.9;15.8;;;;;;;21.93;50.20117;945.4189;;;;
2023/10/02 08:33:43;;;;;;;35.4;15.6;;;;;;;21.69;51.09961;945.4231;;;;
2023/10/02 08:36:09;;;;;;;29.9;12;;;;;;;21.54;51.97266;945.4642;;;;
2023/10/02 08:38:31;;;;;;;32;12.9;;;;;;;21.06;54.30078;945.4286;;;;
2023/10/02 08:41:01;;;;;;;27.7;12.8;;;;;;;21.2;54.89355;945.4444;;;;
2023/10/02 08:43:23;;;;;;;31;13.2;;;;;;;21.7;54.06348;945.4489;;;;
2023/10/02 08:45:50;;;;;;;31.4;14;;;;;;;22.09;52.07227;945.4465;;;;
2023/10/02 08:48:19;;;;;;;32.9;13.9;;;;;;;21.68;50.41895;945.425;;;;
2023/10/02 08:50:40;;;;;;;35.5;14.6;;;;;;;21.73;51.97168;945.4182;;;;
2023/10/02 08:53:09;;;;;;;38.5;15.7;;;;;;;21.92;50.03613;945.3428;;;;
2023/10/02 08:55:51;;;;;;;37.7;14.8;;;;;;;22.15;49.20605;945.3608;;;;
2023/10/02 08:58:15;;;;;;;37.8;15.8;;;;;;;22.49;50.14746;945.3943;;;;
2023/10/02 09:00:24;;;;;;;36.4;14.6;;;;;;;22.78;48.4082;945.3855;;;;
2023/10/02 09:02:54;;;;;;;33.5;15;;;;;;;23.05;47.99023;945.4303;;;;
2023/10/02 09:05:13;;;;;;;36.4;15.6;;;;;;;23.11;46.91504;945.4069;;;;
2023/10/02 09:08:00;;;;;;;36.5;15.6;;;;;;;23.13;45.9082;945.3809;;;;
2023/10/02 09:10:04;;;;;;;39.5;15.7;;;;;;;23.11;45.42383;945.3507;;;;
2023/10/02 09:12:29;;;;;;;36.9;15.5;;;;;;;23.38;46.65137;945.3295;;;;
2023/10/02 09:15:12;;;;;;;57.9;20.7;;;;;;;23.51;48.09961;945.3512;;;;
2023/10/02 09:17:19;;;;;;;35.4;14.9;;;;;;;23.72;45.3916;945.3125;;;;
2023/10/02 09:19:48;;;;;;;34.4;13.9;;;;;;;23.5;46.06348;945.3011;;;;
2023/10/02 09:22:11;;;;;;;36.1;15;;;;;;;23.65;46.64355;945.2949;;;;
2023/10/02 09:24:38;;;;;;;34;14.7;;;;;;;23.54;48.4082;945.2854;;;;
2023/10/02 09:27:20;;;;;;;39;16.5;;;;;;;23.45;45.96387;945.2742;;;;
2023/10/02 09:29:27;;;;;;;40.5;15.8;;;;;;;23.44;45.80957;945.2396;;;;
2023/10/02 09:31:52;;;;;;;36;15.3;;;;;;;23.42;49.21777;945.2659;;;;
2023/10/02 09:34:17;;;;;;;40.6;15.8;;;;;;;23.33;47.62012;945.2425;;;;
2023/10/02 09:36:52;;;;;;;38.5;15.9;;;;;;;23.09;49.73438;945.231;;;;
2023/10/02 09:39:36;;;;;;;36;15.4;;;;;;;23.14;48.58789;945.1362;;;;
2023/10/02 09:41:36;;;;;;;38;15.6;;;;;;;23.14;51.06738;945.155;;;;
2023/10/02 09:44:15;;;;;;;41.9;16.8;;;;;;;23.03;47.73145;945.1587;;;;
2023/10/02 09:46:33;;;;;;;39.2;16.7;;;;;;;23.21;46.86816;945.135;;;;
2023/10/02 09:49:03;;;;;;;36.7;16;;;;;;;23.21;47.97363;945.0959;;;;
2023/10/02 09:51:20;;;;;;;41.4;16.5;;;;;;;23.4;47.58203;945.0388;;;;
2023/10/02 09:54:02;;;;;;;39.8;17;;;;;;;23.48;49.89453;944.9483;;;;
2023/10/02 09:56:14;;;;;;;42.1;18.3;;;;;;;23.36;48.94141;944.9578;;;;
2023/10/02 09:58:39;;;;;;;40.2;16.3;;;;;;;23.52;49.04199;944.8875;;;;
2023/10/02 10:01:05;;;;;;;38.3;16.2;;;;;;;23.53;51.44043;944.9077;;;;
2023/10/02 10:03:32;;;;;;;44.4;17.9;;;;;;;23.54;52.91211;944.9171;;;;
2023/10/02 10:06:05;;;;;;;37.4;16.4;;;;;;;23.55;52.04297;944.9037;;;;
2023/10/02 10:08:29;;;;;;;36;16.7;;;;;;;23.3;50.60254;944.9338;;;;
2023/10/02 10:10:48;;;;;;;43.3;17.6;;;;;;;23.5;48.22754;944.8531;;;;
2023/10/02 10:13:14;;;;;;;39;16.6;;;;;;;23.5;48.89746;944.8427;;;;
2023/10/02 10:15:40;;;;;;;40.8;16.9;;;;;;;23.77;48.05566;944.8293;;;;
2023/10/02 10:18:12;;;;;;;37.2;14.9;;;;;;;24;48.27051;944.8272;;;;
2023/10/02 10:20:30;;;;;;;31.7;14;;;;;;;23.78;47.22168;944.7866;;;;
2023/10/02 10:22:58;;;;;;;34.8;14.6;;;;;;;23.76;47.34961;944.7596;;;;
2023/10/02 10:25:32;;;;;;;31.8;13.9;;;;;;;23.84;50.71191;944.7395;;;;
2023/10/02 10:27:54;;;;;;;35;15;;;;;;;23.93;46.84961;944.7798;;;;
2023/10/02 10:30:11;;;;;;;37.8;15.8;;;;;;;24.24;46.98828;944.7867;;;;
2023/10/02 10:32:41;;;;;;;37;15.6;;;;;;;24.38;43.65625;944.7628;;;;
2023/10/02 10:35:17;;;;;;;35.6;14.7;;;;;;;25.1;43.50195;944.7146;;;;
2023/10/02 10:37:28;;;;;;;34.4;15.3;;;;;;;26.23;43.19824;944.7746;;;;
2023/10/02 10:39:53;;;;;;;33.8;14.9;;;;;;;26.01;39.23926;944.7316;;;;
2023/10/02 10:42:23;;;;;;;38.4;15.8;;;;;;;25.47;42.01465;944.6721;;;;
2023/10/02 10:44:52;;;;;;;32.9;14.5;;;;;;;25.69;44.54004;944.6658;;;;
2023/10/02 10:47:16;;;;;;;39.6;16.2;;;;;;;25.67;44.9873;944.6498;;;;
2023/10/02 10:49:42;;;;;;;35.7;14.8;;;;;;;25.67;44.99902;944.6614;;;;
2023/10/02 10:52:24;;;;;;;40;15.3;;;;;;;25.29;42.00977;944.6514;;;;
2023/10/02 10:54:41;;;;;;;35.9;15.2;;;;;;;25.26;43.6709;944.6078;;;;
2023/10/02 10:57:22;;;;;;;34.5;15.4;;;;;;;24.78;43.62402;944.6144;;;;
2023/10/02 10:59:32;;;;;;;37;15.4;;;;;;;24.55;48.4707;944.6115;;;;
2023/10/02 11:02:13;;;;;;;37.5;16;;;;;;;24.44;47.91602;944.5574;;;;
2023/10/02 11:04:27;;;;;;;38.1;15.5;;;;;;;24.57;47.51758;944.4733;;;;
2023/10/02 11:06:48;;;;;;;34.2;15.5;;;;;;;24.79;43.94336;944.4202;;;;
2023/10/02 11:09:16;;;;;;;34.4;14.6;;;;;;;24.67;46.20801;944.5025;;;;
2023/10/02 11:11:48;;;;;;;36.8;15.5;;;;;;;25.32;43.26367;944.4222;;;;
2023/10/02 11:14:04;;;;;;;36.3;14.6;;;;;;;25.6;45.51172;944.4345;;;;
2023/10/02 11:16:38;;;;;;;36.2;15.3;;;;;;;25.46;44.81348;944.3508;;;;
2023/10/02 11:18:57;;;;;;;36.7;15.3;;;;;;;25.29;48.51563;944.3425;;;;
2023/10/02 11:21:23;;;;;;;32.8;14.2;;;;;;;25.58;46.39746;944.3536;;;;
2023/10/02 11:23:48;;;;;;;31.7;14.9;;;;;;;25.72;43.19629;944.2695;;;;
2023/10/02 11:26:13;;;;;;;33.8;14.2;;;;;;;25.44;41.31445;944.2393;;;;
2023/10/02 11:28:41;;;;;;;34.1;14.7;;;;;;;25.47;42.03809;944.2314;;;;
2023/10/02 11:31:05;;;;;;;30.8;14.2;;;;;;;25.63;42.06641;944.1486;;;;
2023/10/02 11:33:30;;;;;;;32.5;13.9;;;;;;;26.14;43.44922;944.1846;;;;
2023/10/02 11:35:58;;;;;;;32.8;14.1;;;;;;;26.17;42.15137;944.1516;;;;
2023/10/02 11:38:22;;;;;;;35.2;14.3;;;;;;;26.62;39.99121;944.1052;;;;
2023/10/02 11:40:47;;;;;;;34.7;14.4;;;;;;;26.66;41.23828;944.0351;;;;
2023/10/02 11:43:15;;;;;;;31;14.1;;;;;;;26.72;40.63965;944.0084;;;;
2023/10/02 11:45:37;;;;;;;33.4;14.5;;;;;;;26.58;40.47266;943.9355;;;;
2023/10/02 11:48:03;;;;;;;31;14;;;;;;;26.79;42.13867;943.915;;;;
2023/10/02 11:50:28;;;;;;;28.1;13.6;;;;;;;26.99;42.52441;943.9319;;;;
2023/10/02 11:52:54;;;;;;;31.5;14.2;;;;;;;26.94;41.42969;943.913;;;;
2023/10/02 11:55:20;;;;;;;30.7;14.2;;;;;;;26.94;42.11719;943.8639;;;;
2023/10/02 11:57:47;;;;;;;30.8;14.1;;;;;;;26.75;43.37891;943.8328;;;;
2023/10/02 12:00:13;;;;;;;32.5;14.4;;;;;;;26.81;43.20605;943.8024;;;;
2023/10/02 12:02:40;;;;;;;33.8;14.2;;;;;;;26.85;42.60645;943.7207;;;;
2023/10/02 12:05:07;;;;;;;32.9;14.9;;;;;;;27.18;41.78418;943.7489;;;;
2023/10/02 12:07:35;;;;;;;31.1;14.1;;;;;;;27.1;42.83105;943.7524;;;;
2023/10/02 12:10:00;;;;;;;29.8;13.4;;;;;;;27.34;40.42383;943.6514;;;;
2023/10/02 12:12:30;;;;;;;35.6;14.6;;;;;;;27.62;39.08398;943.7014;;;;
2023/10/02 12:14:55;;;;;;;28.9;13.9;;;;;;;27.95;38.01953;943.6691;;;;
2023/10/02 12:17:22;;;;;;;29.4;13.2;;;;;;;27.78;39.46582;943.6362;;;;
2023/10/02 12:19:48;;;;;;;30.7;13.4;;;;;;;27.86;39.12695;943.5328;;;;
2023/10/02 12:22:14;;;;;;;28.4;13.4;;;;;;;27.8;38.375;943.4979;;;;
2023/10/02 12:24:38;;;;;;;30.6;13.6;;;;;;;28.24;38.78027;943.4864;;;;
2023/10/02 12:27:10;;;;;;;33.2;14.1;;;;;;;28.37;38.69629;943.4758;;;;
2023/10/02 12:29:30;;;;;;;34.9;15;;;;;;;27.8;40.19141;943.4511;;;;
2023/10/02 12:32:00;;;;;;;34.1;14.5;;;;;;;27.33;42.10547;943.3995;;;;
2023/10/02 12:34:22;;;;;;;32.6;14.8;;;;;;;27.43;40.96484;943.4208;;;;
2023/10/02 12:36:52;;;;;;;31.6;13.7;;;;;;;27.87;39.72266;943.3244;;;;
2023/10/02 12:39:16;;;;;;;32;14.1;;;;;;;27.8;38.25586;943.326;;;;
2023/10/02 12:41:44;;;;;;;31;13.8;;;;;;;28.01;39.02148;943.3491;;;;
2023/10/02 12:44:10;;;;;;;31.3;13.8;;;;;;;28.09;38.60156;943.2899;;;;
2023/10/02 12:46:41;;;;;;;31.3;13.6;;;;;;;27.56;42.85156;943.3306;;;;
2023/10/02 12:49:04;;;;;;;33.6;14.6;;;;;;;27.94;40.6084;943.2338;;;;
2023/10/02 12:51:26;;;;;;;28.2;13.5;;;;;;;28.16;39.98633;943.2148;;;;
2023/10/02 12:53:51;;;;;;;31.1;14.5;;;;;;;27.95;38.44629;943.1788;;;;
2023/10/02 12:56:18;;;;;;;31.3;14.4;;;;;;;27.81;39.14746;943.137;;;;
2023/10/02 12:58:43;;;;;;;30.8;14.3;;;;;;;27.81;39.13574;943.1328;;;;
2023/10/02 13:01:13;;;;;;;33;13.6;;;;;;;27.71;40.86035;943.1336;;;;
2023/10/02 13:03:34;;;;;;;32.8;13.9;;;;;;;27.74;38.66699;943.1258;;;;
2023/10/02 13:05:59;;;;;;;31.7;14.2;;;;;;;27.87;38.47559;943.0837;;;;
2023/10/02 13:08:24;;;;;;;33.7;14.5;;;;;;;27.28;40.48828;943.0958;;;;
2023/10/02 13:10:50;;;;;;;33.7;14.5;;;;;;;27.82;36.45313;943.016;;;;
2023/10/02 13:13:15;;;;;;;34.6;14.7;;;;;;;27.73;38.62988;943.0699;;;;
2023/10/02 13:15:43;;;;;;;33.3;14.8;;;;;;;28.06;37.63672;942.9849;;;;
2023/10/02 13:18:08;;;;;;;32.3;14.1;;;;;;;28.38;36.81934;943.0419;;;;
2023/10/02 13:20:35;;;;;;;32.9;14.3;;;;;;;28.7;35.98828;942.9702;;;;
2023/10/02 13:23:02;;;;;;;36.2;15.7;;;;;;;28.89;36.39648;942.9783;;;;
2023/10/02 13:25:28;;;;;;;34.1;15.2;;;;;;;28.91;35.79102;942.9526;;;;
2023/10/02 13:27:53;;;;;;;32.1;13.9;;;;;;;28.81;36.62793;942.9386;;;;
2023/10/02 13:30:25;;;;;;;33.1;14.6;;;;;;;28.66;37.55566;942.9533;;;;
2023/10/02 13:32:44;;;;;;;31.1;13.8;;;;;;;28.68;36.82031;942.9208;;;;
2023/10/02 13:35:15;;;;;;;32.2;14.5;;;;;;;28.56;38.45215;942.8998;;;;
2023/10/02 13:37:39;;;;;;;34.2;14.9;;;;;;;28.69;37.85645;942.9392;;;;
2023/10/02 13:40:18;;;;;;;33.6;15;;;;;;;28.68;37.49805;942.9155;;;;
2023/10/02 13:42:33;;;;;;;30.8;14.3;;;;;;;28.76;38.52734;942.8511;;;;
2023/10/02 13:45:01;;;;;;;32.8;14.2;;;;;;;28.86;38.00098;942.8724;;;;
2023/10/02 13:47:26;;;;;;;32.3;13.8;;;;;;;28.95;38.13965;942.848;;;;
2023/10/02 13:49:54;;;;;;;36.3;15;;;;;;;28.89;38.64648;942.8658;;;;
2023/10/02 13:52:17;;;;;;;34.5;15.3;;;;;;;28.78;38.01758;942.8237;;;;
2023/10/02 13:54:42;;;;;;;34.8;15.2;;;;;;;28.85;38.44043;942.7989;;;;
2023/10/02 13:57:08;;;;;;;33.2;13.8;;;;;;;28.71;37.48926;942.7552;;;;
2023/10/02 13:59:33;;;;;;;30.6;13.8;;;;;;;28.38;39.26758;942.7767;;;;
2023/10/02 14:01:59;;;;;;;30.7;14;;;;;;;28.55;39.88965;942.7662;;;;
2023/10/02 14:04:25;;;;;;;33;14.3;;;;;;;28.44;39.07129;942.7394;;;;
2023/10/02 14:06:50;;;;;;;30.3;14.3;;;;;;;28.57;39.49902;942.7062;;;;
2023/10/02 14:09:15;;;;;;;30.7;13.6;;;;;;;28.64;40.80176;942.697;;;;
2023/10/02 14:11:42;;;;;;;33.9;14.5;;;;;;;28.74;39.89453;942.7014;;;;
2023/10/02 14:14:07;;;;;;;31.2;14.6;;;;;;;28.77;39.56445;942.671;;;;
2023/10/02 14:16:34;;;;;;;32.4;14.2;;;;;;;28.54;41.10156;942.7219;;;;
2023/10/02 14:19:00;;;;;;;37.1;14.6;;;;;;;28.42;40.68652;942.6636;;;;
2023/10/02 14:21:25;;;;;;;31.2;14.5;;;;;;;28.43;40.49707;942.6512;;;;
2023/10/02 14:23:52;;;;;;;30;13.8;;;;;;;28.5;40.3125;942.6847;;;;
2023/10/02 14:26:18;;;;;;;34.8;14.8;;;;;;;28.48;40.54883;942.6717;;;;
2023/10/02 14:28:43;;;;;;;30.8;13.8;;;;;;;28.44;41.02148;942.6212;;;;
2023/10/02 14:31:10;;;;;;;29.5;14.7;;;;;;;28.27;40.6377;942.6857;;;;
2023/10/02 14:33:35;;;;;;;30.8;13.9;;;;;;;28.22;40.9541;942.6384;;;;
2023/10/02 14:36:06;;;;;;;33.4;14.7;;;;;;;28.1;41.29883;942.6194;;;;
2023/10/02 14:38:26;;;;;;;33.7;15.2;;;;;;;28.06;41.25977;942.5951;;;;
2023/10/02 14:40:53;;;;;;;31.3;13.7;;;;;;;28.05;41.0459;942.6365;;;;
2023/10/02 14:43:18;;;;;;;31.6;14.8;;;;;;;27.92;41.36621;942.5881;;;;
2023/10/02 14:45:45;;;;;;;32.5;14.4;;;;;;;27.75;41.84961;942.6398;;;;
2023/10/02 14:48:12;;;;;;;28.4;13.7;;;;;;;27.67;42.77832;942.6343;;;;
2023/10/02 14:50:35;;;;;;;31.9;14.6;;;;;;;27.62;42.20508;942.64;;;;
2023/10/02 14:53:01;;;;;;;30.7;14.5;;;;;;;27.64;44.04688;942.616;;;;
2023/10/02 14:55:27;;;;;;;30.7;14.3;;;;;;;27.39;44.6748;942.6267;;;;
2023/10/02 14:57:52;;;;;;;34.1;14.6;;;;;;;27.21;45.53418;942.5934;;;;
2023/10/02 15:00:21;;;;;;;31.8;14.8;;;;;;;27.08;46.09082;942.5407;;;;
2023/10/02 15:02:43;;;;;;;32.1;14.4;;;;;;;26.88;47.44434;942.5528;;;;
2023/10/02 15:05:15;;;;;;;33.8;14.6;;;;;;;26.81;46.67773;942.6085;;;;
2023/10/02 15:07:42;;;;;;;30.9;14.2;;;;;;;26.78;46.87598;942.6057;;;;
2023/10/02 15:10:07;;;;;;;35;14.8;;;;;;;26.72;47.46191;942.5472;;;;